Time;durP1;ratioP1;P1;durP2;ratioP2;P2;SDS_P1;SDS_P2;PMS_P1;PMS_P2;Temp;Humidity;BMP_temperature;BMP_pressure;BME280_temperature;BME280_humidity;BME280_pressure;Samples;Min_cycle;Max_cycle;Signal;HPM_P1;HPM_P2
2023/05/08 00:00:17;;;;;;;15.50;8.97;;;;;;;14.08;90.53;94818.28;5064789;28;20209;-78
2023/05/08 00:02:46;;;;;;;12.20;8.60;;;;;;;14.01;92.20;94815.03;5072147;28;20273;-78
2023/05/08 00:05:13;;;;;;;14.60;8.33;;;;;;;13.94;92.78;94812.53;5065584;28;20253;-78
2023/05/08 00:07:40;;;;;;;12.33;7.97;;;;;;;13.96;92.66;94807.09;5070413;28;20198;-78
2023/05/08 00:10:08;;;;;;;13.67;8.60;;;;;;;13.92;92.49;94817.22;5072177;28;21071;-78
2023/05/08 00:12:35;;;;;;;14.40;8.63;;;;;;;13.92;92.91;94812.00;5066364;28;20213;-79
2023/05/08 00:15:03;;;;;;;18.80;8.80;;;;;;;13.87;93.22;94816.34;5072490;28;20233;-79
2023/05/08 00:17:30;;;;;;;12.40;8.40;;;;;;;13.91;92.69;94812.25;5071833;28;20197;-79
2023/05/08 00:19:58;;;;;;;11.97;8.63;;;;;;;13.85;93.25;94815.78;5066226;28;20623;-76
2023/05/08 00:22:25;;;;;;;17.43;8.57;;;;;;;13.84;93.37;94822.81;5067756;28;20197;-76
2023/05/08 00:24:52;;;;;;;12.30;9.33;;;;;;;13.83;93.45;94818.63;5072382;28;20679;-76
2023/05/08 00:27:19;;;;;;;13.40;8.20;;;;;;;13.84;92.45;94822.81;5070134;28;20610;-76
2023/05/08 00:29:45;;;;;;;12.20;9.10;;;;;;;13.75;92.19;94834.66;5068753;28;20221;-76
2023/05/08 00:32:12;;;;;;;13.87;9.20;;;;;;;13.70;92.83;94836.41;5078668;28;20204;-76
2023/05/08 00:34:39;;;;;;;13.67;8.50;;;;;;;13.69;92.25;94827.75;5068652;28;20197;-76
2023/05/08 00:37:07;;;;;;;16.27;8.63;;;;;;;13.64;91.70;94825.84;5068746;28;20652;-76
2023/05/08 00:39:34;;;;;;;12.13;8.10;;;;;;;13.58;92.28;94825.97;5076404;28;20210;-76
2023/05/08 00:42:01;;;;;;;17.17;8.53;;;;;;;13.50;92.58;94832.38;5070654;28;20216;-76
2023/05/08 00:44:28;;;;;;;14.37;8.17;;;;;;;13.42;93.39;94827.47;5068577;28;20212;-76
2023/05/08 00:46:55;;;;;;;11.63;8.10;;;;;;;13.26;94.70;94825.59;5081462;28;20204;-76
2023/05/08 00:49:22;;;;;;;13.50;8.10;;;;;;;13.15;95.26;94810.75;5075537;28;20208;-76
2023/05/08 00:51:52;;;;;;;11.47;8.50;;;;;;;13.23;95.46;94831.28;5074777;28;20197;-76
2023/05/08 00:54:21;;;;;;;13.63;8.43;;;;;;;13.24;94.98;94830.28;5074702;28;20275;-76
2023/05/08 00:56:50;;;;;;;11.00;8.70;;;;;;;13.16;95.84;94829.81;5070229;28;20198;-77
2023/05/08 00:59:20;;;;;;;13.20;8.60;;;;;;;13.19;95.92;94835.34;5069994;28;20192;-77
2023/05/08 01:01:48;;;;;;;14.23;8.67;;;;;;;13.18;95.65;94836.41;5080803;28;20721;-76
2023/05/08 01:04:15;;;;;;;13.27;8.60;;;;;;;13.21;95.40;94846.38;5076644;28;20188;-78
2023/05/08 01:06:42;;;;;;;14.77;9.17;;;;;;;13.22;94.86;94839.34;5069944;28;20197;-78
2023/05/08 01:09:09;;;;;;;12.37;8.77;;;;;;;13.18;95.52;94836.41;5078327;28;20225;-78
2023/05/08 01:11:45;;;;;;;12.83;8.77;;;;;;;13.16;96.02;94842.88;5071440;28;20202;-78
2023/05/08 01:14:19;;;;;;;13.37;8.53;;;;;;;13.07;96.01;94839.78;5071211;28;20192;-78
2023/05/08 01:16:56;;;;;;;15.03;8.37;;;;;;;12.98;96.33;94830.72;5074869;28;20205;-77
2023/05/08 01:19:58;;;;;;;11.23;7.43;;;;;;;13.10;94.99;94846.41;5077298;28;20209;-77
2023/05/08 01:22:44;;;;;;;10.23;6.67;;;;;;;13.01;94.03;94828.44;5030710;28;20695;-77
2023/05/08 01:25:36;;;;;;;10.57;8.20;;;;;;;13.08;94.48;94836.97;5072760;28;20189;-76
2023/05/08 01:28:39;;;;;;;18.73;7.83;;;;;;;13.11;95.06;94834.91;5069384;28;21076;-79
2023/05/08 01:31:17;;;;;;;12.07;7.50;;;;;;;13.15;94.58;94841.28;5075596;28;20205;-76
2023/05/08 01:33:49;;;;;;;20.37;7.97;;;;;;;13.07;94.88;94837.19;5075506;28;20530;-76
2023/05/08 01:36:26;;;;;;;11.90;7.97;;;;;;;13.10;95.39;94831.53;5074865;28;20184;-78
2023/05/08 01:39:01;;;;;;;16.13;7.87;;;;;;;13.03;94.95;94836.03;5074808;28;20223;-76
2023/05/08 01:41:31;;;;;;;14.77;8.10;;;;;;;12.97;94.91;94832.53;5076573;28;20275;-76
2023/05/08 01:44:12;;;;;;;16.37;8.57;;;;;;;12.97;94.51;94824.69;5070455;28;20653;-76
2023/05/08 01:46:39;;;;;;;16.57;7.97;;;;;;;12.92;94.97;94829.00;5073385;28;20190;-76
2023/05/08 01:49:10;;;;;;;13.83;8.47;;;;;;;12.84;95.91;94829.38;5080861;28;20221;-76
2023/05/08 01:51:42;;;;;;;11.50;8.10;;;;;;;12.86;95.80;94822.91;5069598;28;20206;-76
2023/05/08 01:54:12;;;;;;;11.77;7.53;;;;;;;12.87;96.56;94826.31;5072530;28;20208;-76
2023/05/08 01:56:42;;;;;;;11.07;8.13;;;;;;;12.86;96.40;94822.91;5076896;28;20206;-76
2023/05/08 01:59:12;;;;;;;19.13;8.53;;;;;;;12.76;96.29;94832.28;5073149;28;20194;-76
2023/05/08 02:01:40;;;;;;;11.87;8.37;;;;;;;12.73;96.43;94837.94;5071700;28;20279;-76
2023/05/08 02:04:10;;;;;;;10.60;8.03;;;;;;;12.69;96.47;94826.41;5063540;28;20201;-76
2023/05/08 02:06:38;;;;;;;12.33;8.20;;;;;;;12.58;97.27;94821.97;5057208;28;20224;-76
2023/05/08 02:09:08;;;;;;;14.60;8.03;;;;;;;12.66;96.68;94824.25;5057152;28;20233;-76
2023/05/08 02:11:37;;;;;;;10.37;8.00;;;;;;;12.43;97.55;94810.19;5061917;28;20286;-76
2023/05/08 02:14:05;;;;;;;19.83;8.43;;;;;;;12.55;97.14;94827.66;5074120;28;20206;-76
2023/05/08 02:16:33;;;;;;;14.27;7.97;;;;;;;12.51;97.80;94828.09;5071183;28;20197;-76
2023/05/08 02:19:01;;;;;;;16.73;7.67;;;;;;;12.50;97.49;94830.91;5075149;28;20201;-75
2023/05/08 02:21:31;;;;;;;13.47;8.40;;;;;;;12.42;98.01;94828.63;5075138;28;20196;-75
2023/05/08 02:23:59;;;;;;;9.60;8.03;;;;;;;12.45;97.45;94841.22;5067759;28;20199;-76
2023/05/08 02:26:27;;;;;;;11.73;7.87;;;;;;;12.44;97.31;94839.63;5073983;28;20201;-76
2023/05/08 02:28:55;;;;;;;11.33;7.13;;;;;;;12.44;97.15;94840.44;5075143;28;20641;-77
2023/05/08 02:31:23;;;;;;;13.00;7.77;;;;;;;12.50;96.94;94836.13;5070336;28;20205;-76
2023/05/08 02:33:51;;;;;;;9.90;7.30;;;;;;;12.45;96.81;94839.41;5071586;28;20198;-76
2023/05/08 02:36:20;;;;;;;11.57;6.60;;;;;;;12.37;97.16;94831.94;5076002;28;20212;-76
2023/05/08 02:38:52;;;;;;;16.70;7.30;;;;;;;12.30;97.84;94823.41;5072080;28;20238;-76
2023/05/08 02:41:21;;;;;;;8.43;6.40;;;;;;;12.32;96.85;94823.97;5069763;28;20275;-76
2023/05/08 02:43:48;;;;;;;12.77;6.70;;;;;;;12.41;96.57;94838.25;5078510;28;20298;-76
2023/05/08 02:46:18;;;;;;;9.87;7.10;;;;;;;12.38;96.25;94837.94;5072149;28;20201;-76
2023/05/08 02:48:56;;;;;;;11.40;7.20;;;;;;;12.42;96.82;94846.88;5072885;28;20186;-76
2023/05/08 02:51:27;;;;;;;11.30;7.07;;;;;;;12.41;96.86;94840.06;5073821;28;20629;-77
2023/05/08 02:54:04;;;;;;;9.43;6.97;;;;;;;12.47;96.68;94842.59;5071372;28;20216;-76
2023/05/08 02:56:37;;;;;;;15.43;7.90;;;;;;;12.42;97.38;94842.47;5068841;28;20280;-76
2023/05/08 02:59:14;;;;;;;12.57;7.77;;;;;;;12.44;97.52;94848.25;5075912;28;20202;-77
2023/05/08 03:01:48;;;;;;;12.93;7.47;;;;;;;12.50;97.60;94843.94;5073267;28;20754;-77
2023/05/08 03:04:23;;;;;;;15.30;8.10;;;;;;;12.56;97.20;94839.66;5071723;28;20200;-76
2023/05/08 03:06:51;;;;;;;10.40;7.97;;;;;;;12.55;97.52;94843.28;5073613;28;20197;-76
2023/05/08 03:09:21;;;;;;;13.37;8.67;;;;;;;12.53;97.53;94838.28;5075703;28;20200;-76
2023/05/08 03:11:53;;;;;;;13.63;8.43;;;;;;;12.42;98.07;94837.25;5068608;28;20729;-77
2023/05/08 03:14:23;;;;;;;12.47;8.03;;;;;;;12.44;97.93;94843.03;5066965;28;20856;-76
2023/05/08 03:16:55;;;;;;;13.30;8.20;;;;;;;12.35;98.64;94846.22;5075640;28;20200;-77
2023/05/08 03:19:27;;;;;;;15.17;8.53;;;;;;;12.25;98.99;94845.94;5067021;28;20200;-76
2023/05/08 03:21:56;;;;;;;12.27;8.23;;;;;;;12.24;98.72;94847.75;5071635;28;20204;-77
2023/05/08 03:24:26;;;;;;;17.63;8.90;;;;;;;12.24;98.81;94849.56;5078852;28;20283;-77
2023/05/08 03:26:55;;;;;;;13.83;8.67;;;;;;;12.25;98.25;94844.13;5068587;28;20181;-80
2023/05/08 03:29:24;;;;;;;14.27;9.00;;;;;;;12.28;98.50;94845.50;5070176;28;20217;-79
2023/05/08 03:31:52;;;;;;;14.23;9.07;;;;;;;12.31;98.55;94855.47;5075119;28;20689;-78
2023/05/08 03:34:20;;;;;;;15.50;9.53;;;;;;;12.25;99.07;94848.56;5067504;28;20197;-78
2023/05/08 03:36:47;;;;;;;16.90;8.63;;;;;;;12.19;98.94;94852.03;5071818;28;20197;-79
2023/05/08 03:39:14;;;;;;;13.50;9.53;;;;;;;12.24;99.01;94860.78;5073773;28;20194;-79
2023/05/08 03:41:43;;;;;;;14.90;9.37;;;;;;;12.32;98.58;94851.88;5070841;28;20200;-79
2023/05/08 03:44:10;;;;;;;14.80;8.97;;;;;;;12.40;98.06;94854.16;5071423;28;20201;-79
2023/05/08 03:46:38;;;;;;;16.10;9.50;;;;;;;12.38;98.43;94848.38;5073468;28;20208;-80
2023/05/08 03:49:06;;;;;;;19.50;9.97;;;;;;;12.42;98.29;94855.50;5072461;28;20237;-79
2023/05/08 03:51:33;;;;;;;15.57;9.67;;;;;;;12.46;98.11;94848.84;5066794;28;20290;-78
2023/05/08 03:54:00;;;;;;;13.80;9.30;;;;;;;12.46;98.58;94858.47;5075174;28;20197;-79
2023/05/08 03:56:28;;;;;;;18.80;10.67;;;;;;;12.44;99.41;94858.66;5071966;28;20201;-78
2023/05/08 03:59:06;;;;;;;15.50;10.00;;;;;;;12.36;99.09;94845.97;5071273;28;20193;-78
2023/05/08 04:01:39;;;;;;;20.63;9.50;;;;;;;12.43;98.55;94856.31;5074926;28;20204;-78
2023/05/08 04:04:10;;;;;;;15.93;9.20;;;;;;;12.53;98.08;94864.34;5069649;28;20319;-77
2023/05/08 04:06:40;;;;;;;11.53;8.80;;;;;;;12.63;97.03;94863.81;5068611;28;20664;-76
2023/05/08 04:09:13;;;;;;;19.17;10.00;;;;;;;12.58;97.91;94864.50;5072058;28;20891;-79
2023/05/08 04:11:48;;;;;;;13.83;9.43;;;;;;;12.62;98.69;94870.03;5077285;28;20224;-79
2023/05/08 04:14:19;;;;;;;18.33;9.30;;;;;;;12.72;97.28;94872.91;5071195;28;20332;-80
2023/05/08 04:16:54;;;;;;;17.17;9.30;;;;;;;12.70;96.80;94867.88;5062765;28;20194;-80
2023/05/08 04:19:24;;;;;;;20.93;10.10;;;;;;;12.79;96.61;94870.97;5067155;28;20193;-80
2023/05/08 04:21:59;;;;;;;17.13;10.10;;;;;;;12.74;96.90;94866.44;5068642;28;20225;-81
2023/05/08 04:24:28;;;;;;;14.20;9.17;;;;;;;12.82;97.44;94886.97;5069640;28;20194;-80
2023/05/08 04:26:56;;;;;;;17.27;9.43;;;;;;;12.80;97.74;94868.13;5071745;28;20197;-80
2023/05/08 04:29:24;;;;;;;17.47;9.63;;;;;;;13.01;97.01;94882.44;5070385;28;20201;-80
2023/05/08 04:31:52;;;;;;;16.63;9.50;;;;;;;13.06;96.75;94875.53;5067121;28;20327;-80
2023/05/08 04:34:18;;;;;;;14.00;9.03;;;;;;;13.06;96.19;94877.34;5071420;28;20201;-80
2023/05/08 04:36:47;;;;;;;17.60;9.77;;;;;;;13.12;95.18;94876.47;5070120;28;20216;-80
2023/05/08 04:39:14;;;;;;;14.90;9.53;;;;;;;13.18;95.33;94882.56;5077704;28;20197;-79
2023/05/08 04:41:43;;;;;;;16.53;9.90;;;;;;;13.23;95.34;94870.44;5078846;28;20573;-80
2023/05/08 04:44:13;;;;;;;17.53;8.77;;;;;;;13.12;93.91;94858.19;5068704;28;20287;-79
2023/05/08 04:46:58;;;;;;;15.43;8.63;;;;;;;13.17;93.47;94865.31;5073371;28;20186;-79
2023/05/08 04:49:24;;;;;;;13.03;8.23;;;;;;;13.16;92.99;94864.53;5069380;28;20185;-80
2023/05/08 04:51:52;;;;;;;13.77;8.77;;;;;;;13.17;93.04;94865.31;5073311;28;20221;-80
2023/05/08 04:54:19;;;;;;;12.93;8.07;;;;;;;13.15;93.21;94862.16;5062545;28;20198;-79
2023/05/08 04:56:46;;;;;;;12.30;7.97;;;;;;;13.19;92.97;94855.47;5072289;28;20720;-79
2023/05/08 04:59:13;;;;;;;10.83;8.10;;;;;;;13.21;93.14;94863.84;5069663;28;20239;-80
2023/05/08 05:01:41;;;;;;;11.60;7.67;;;;;;;13.24;93.58;94863.41;5068793;28;20185;-80
2023/05/08 05:04:08;;;;;;;12.43;7.87;;;;;;;13.34;92.66;94851.34;5067594;28;20300;-80
2023/05/08 05:06:34;;;;;;;17.20;7.87;;;;;;;13.39;92.77;94861.88;5071542;28;20213;-82
2023/05/08 05:09:02;;;;;;;20.00;7.97;;;;;;;13.53;91.60;94852.78;5068555;28;20284;-81
2023/05/08 05:11:29;;;;;;;20.53;8.17;;;;;;;13.66;90.39;94846.50;5069614;28;20217;-80
2023/05/08 05:13:55;;;;;;;16.00;8.30;;;;;;;13.77;89.63;94853.50;5068551;28;20200;-78
2023/05/08 05:16:22;;;;;;;13.20;8.00;;;;;;;13.78;88.68;94846.47;5067087;28;20201;-80
2023/05/08 05:18:50;;;;;;;12.00;7.83;;;;;;;13.81;88.92;94853.84;5068831;28;20584;-78
2023/05/08 05:21:17;;;;;;;11.30;6.83;;;;;;;13.84;89.30;94848.16;5074718;28;20196;-78
2023/05/08 05:23:46;;;;;;;15.27;7.63;;;;;;;13.93;88.49;94850.16;5065950;28;20198;-79
2023/05/08 05:26:22;;;;;;;12.23;7.97;;;;;;;14.00;87.98;94847.41;5064071;28;20893;-81
2023/05/08 05:28:49;;;;;;;13.73;8.50;;;;;;;14.10;86.97;94850.22;5069195;28;20204;-80
2023/05/08 05:31:16;;;;;;;12.73;8.33;;;;;;;14.15;87.72;94861.53;5067747;28;20217;-80
2023/05/08 05:33:43;;;;;;;10.73;8.10;;;;;;;14.20;87.03;94852.97;5067380;28;20210;-81
2023/05/08 05:36:11;;;;;;;15.00;8.40;;;;;;;14.17;86.76;94854.25;5074210;28;21892;-81
2023/05/08 05:38:38;;;;;;;14.00;8.40;;;;;;;14.23;86.24;94843.91;5071841;28;20200;-80
2023/05/08 05:41:05;;;;;;;13.47;8.97;;;;;;;14.26;86.22;94848.66;5070588;28;20725;-80
2023/05/08 05:43:32;;;;;;;15.70;8.27;;;;;;;14.27;86.63;94853.63;5055553;28;20223;-80
2023/05/08 05:46:04;;;;;;;26.43;8.73;;;;;;;14.27;86.63;94837.97;5065901;28;20320;-80
2023/05/08 05:48:31;;;;;;;16.03;9.30;;;;;;;14.37;86.11;94853.06;5071709;28;20197;-80
2023/05/08 05:50:58;;;;;;;16.47;9.07;;;;;;;14.31;84.94;94830.44;5077033;28;20227;-79
2023/05/08 05:53:27;;;;;;;15.80;9.70;;;;;;;14.42;85.61;94847.91;5069560;28;20235;-80
2023/05/08 05:55:53;;;;;;;15.27;8.77;;;;;;;14.46;85.29;94852.41;5070999;28;20209;-78
2023/05/08 05:58:20;;;;;;;14.43;8.60;;;;;;;14.46;86.28;94843.81;5075327;28;20201;-78
2023/05/08 06:00:47;;;;;;;14.13;9.00;;;;;;;14.51;85.65;94843.88;5070390;28;20524;-79
2023/05/08 06:03:14;;;;;;;12.83;9.07;;;;;;;14.61;84.66;94839.59;5073808;28;20216;-79
2023/05/08 06:05:41;;;;;;;14.33;8.93;;;;;;;14.69;83.77;94846.25;5079901;28;20275;-79
2023/05/08 06:08:08;;;;;;;11.60;8.63;;;;;;;14.71;84.03;94831.91;5068021;28;20563;-78
2023/05/08 06:10:36;;;;;;;11.70;8.63;;;;;;;14.66;84.25;94828.44;5071401;28;20217;-79
2023/05/08 06:13:03;;;;;;;13.17;7.90;;;;;;;14.77;82.66;94830.16;5069137;28;20201;-78
2023/05/08 06:15:30;;;;;;;13.17;7.57;;;;;;;14.84;81.98;94832.59;5067267;28;20216;-81
2023/05/08 06:17:57;;;;;;;15.67;8.10;;;;;;;14.86;82.26;94833.97;5064426;28;20206;-79
2023/05/08 06:20:23;;;;;;;12.37;7.73;;;;;;;14.91;81.16;94835.84;5077439;28;20193;-79
2023/05/08 06:22:50;;;;;;;16.90;7.60;;;;;;;14.96;80.80;94834.09;5071809;28;20729;-80
2023/05/08 06:25:18;;;;;;;17.80;7.77;;;;;;;15.00;80.73;94832.59;5073962;28;20202;-80
2023/05/08 06:27:46;;;;;;;11.07;7.50;;;;;;;15.10;80.93;94834.53;5073172;28;20200;-80
2023/05/08 06:30:13;;;;;;;17.20;7.97;;;;;;;15.08;81.00;94826.16;5069193;28;20205;-80
2023/05/08 06:32:40;;;;;;;15.80;7.40;;;;;;;15.16;80.63;94837.00;5072496;28;20664;-79
2023/05/08 06:35:17;;;;;;;16.30;8.27;;;;;;;15.29;80.02;94841.13;5071921;28;20205;-81
2023/05/08 06:37:44;;;;;;;10.73;7.50;;;;;;;15.35;80.37;94846.16;5067168;28;20309;-80
2023/05/08 06:40:12;;;;;;;16.27;7.07;;;;;;;15.52;79.07;94845.34;5069969;28;20676;-80
2023/05/08 06:42:39;;;;;;;13.87;7.13;;;;;;;15.59;78.58;94845.94;5068519;28;20730;-80
2023/05/08 06:45:09;;;;;;;13.23;7.47;;;;;;;15.62;76.50;94846.25;5066644;28;20209;-81
2023/05/08 06:47:36;;;;;;;13.00;7.13;;;;;;;15.61;77.07;94844.66;5066335;28;20201;-81
2023/05/08 06:50:03;;;;;;;14.10;7.70;;;;;;;15.66;76.31;94843.94;5077118;28;20219;-81
2023/05/08 06:52:30;;;;;;;11.90;7.60;;;;;;;15.50;77.10;94836.97;5068292;28;20225;-83
2023/05/08 06:54:57;;;;;;;15.77;7.80;;;;;;;15.35;78.08;94834.91;5065650;28;20199;-82
2023/05/08 06:57:25;;;;;;;11.10;7.63;;;;;;;15.45;77.95;94847.31;5069732;28;20213;-81
2023/05/08 06:59:52;;;;;;;13.33;7.50;;;;;;;15.60;77.78;94850.16;5066730;28;20201;-79
2023/05/08 07:02:21;;;;;;;12.00;7.33;;;;;;;15.73;77.69;94849.78;5064548;28;20193;-79
2023/05/08 07:04:48;;;;;;;12.43;7.13;;;;;;;15.87;77.73;94857.03;5071897;28;20222;-81
2023/05/08 07:07:15;;;;;;;9.57;6.73;;;;;;;16.02;76.75;94856.41;5070031;28;20219;-78
2023/05/08 07:09:41;;;;;;;11.20;6.77;;;;;;;16.14;76.50;94854.44;5066509;28;20255;-78
2023/05/08 07:12:08;;;;;;;12.53;6.60;;;;;;;16.26;75.72;94865.59;5073996;28;20278;-78
2023/05/08 07:14:35;;;;;;;11.03;7.20;;;;;;;16.36;74.75;94846.53;5065823;28;20253;-76
2023/05/08 07:17:05;;;;;;;12.50;7.30;;;;;;;16.41;73.88;94852.63;5066127;28;20254;-77
2023/05/08 07:19:50;;;;;;;11.93;7.03;;;;;;;16.26;74.57;94854.28;5073817;28;20221;-79
2023/05/08 07:22:17;;;;;;;13.40;7.13;;;;;;;16.25;75.31;94852.69;5071985;28;20320;-75
2023/05/08 07:24:43;;;;;;;11.77;6.67;;;;;;;16.35;75.61;94855.44;5065994;28;20251;-76
2023/05/08 07:27:10;;;;;;;10.37;7.07;;;;;;;16.47;75.43;94861.31;5068380;28;20279;-76
2023/05/08 07:29:37;;;;;;;11.60;6.40;;;;;;;16.58;74.57;94857.78;5069809;28;20251;-76
2023/05/08 07:32:07;;;;;;;11.20;6.50;;;;;;;16.77;74.10;94858.97;5066348;28;20221;-75
2023/05/08 07:34:34;;;;;;;9.30;6.60;;;;;;;16.85;73.59;94848.00;5067889;28;20202;-74
2023/05/08 07:37:02;;;;;;;13.23;6.63;;;;;;;17.08;73.41;94856.56;5071583;28;20250;-76
2023/05/08 07:39:29;;;;;;;13.27;6.70;;;;;;;17.23;72.06;94856.69;5066523;28;20206;-76
2023/05/08 07:41:56;;;;;;;16.77;6.20;;;;;;;17.34;72.15;94855.69;5067704;28;20867;-77
2023/05/08 07:44:23;;;;;;;15.45;5.88;;;;;;;17.45;71.38;94868.63;5066695;28;20220;-76
2023/05/08 07:46:49;;;;;;;15.25;6.10;;;;;;;17.56;69.05;94856.34;5065539;28;21080;-76
2023/05/08 07:49:16;;;;;;;7.65;5.75;;;;;;;17.71;67.86;94860.88;5066470;28;20211;-75
2023/05/08 07:51:43;;;;;;;7.07;5.45;;;;;;;17.80;67.00;94860.16;5071873;28;20225;-75
2023/05/08 07:54:11;;;;;;;9.35;5.65;;;;;;;17.86;67.52;94863.59;5067433;28;20212;-82
2023/05/08 07:56:38;;;;;;;13.45;6.13;;;;;;;17.91;67.05;94866.22;5063784;28;20217;-80
2023/05/08 07:59:05;;;;;;;14.38;6.13;;;;;;;17.70;66.97;94867.97;5071069;28;20200;-82
2023/05/08 08:01:31;;;;;;;11.38;5.70;;;;;;;17.78;67.86;94862.22;5069396;28;20188;-79
2023/05/08 08:03:58;;;;;;;9.23;6.40;;;;;;;17.80;66.75;94868.03;5067993;28;20679;-76
2023/05/08 08:06:25;;;;;;;9.07;5.80;;;;;;;17.56;68.16;94872.13;5068660;28;20230;-78
2023/05/08 08:08:52;;;;;;;12.27;5.93;;;;;;;17.44;69.00;94869.66;5066004;28;20201;-77
2023/05/08 08:11:20;;;;;;;9.93;6.20;;;;;;;17.57;69.97;94861.34;5066504;28;20225;-76
2023/05/08 08:13:47;;;;;;;8.95;5.88;;;;;;;17.64;70.42;94866.38;5071485;28;20205;-77
2023/05/08 08:16:13;;;;;;;8.85;5.97;;;;;;;17.56;70.39;94857.16;5065743;28;20243;-76
2023/05/08 08:18:40;;;;;;;10.50;6.00;;;;;;;17.66;70.79;94859.03;5066282;28;20203;-76
2023/05/08 08:21:08;;;;;;;14.07;5.60;;;;;;;17.95;69.17;94859.41;5072331;28;20201;-77
2023/05/08 08:23:34;;;;;;;8.23;5.75;;;;;;;18.08;68.26;94864.97;5063431;28;20224;-77
2023/05/08 08:26:01;;;;;;;9.75;5.60;;;;;;;18.27;68.27;94860.00;5065334;28;20215;-77
2023/05/08 08:28:29;;;;;;;11.05;5.85;;;;;;;18.43;67.44;94855.56;5070612;28;20701;-76
2023/05/08 08:30:56;;;;;;;8.95;5.90;;;;;;;18.58;67.30;94851.16;5066018;28;20277;-75
2023/05/08 08:33:23;;;;;;;8.55;6.28;;;;;;;18.68;67.41;94848.50;5065891;28;20884;-76
2023/05/08 08:35:50;;;;;;;8.13;5.80;;;;;;;18.78;67.33;94844.28;5072078;28;20189;-76
2023/05/08 08:38:17;;;;;;;14.82;6.35;;;;;;;18.90;67.87;94844.81;5065915;28;20281;-76
2023/05/08 08:40:44;;;;;;;12.82;6.07;;;;;;;19.00;67.30;94842.16;5066349;28;20202;-76
2023/05/08 08:43:11;;;;;;;13.80;6.20;;;;;;;19.09;67.48;94837.94;5073942;28;20193;-75
2023/05/08 08:45:39;;;;;;;10.43;5.70;;;;;;;19.24;66.61;94828.19;5063827;28;20254;-75
2023/05/08 08:48:11;;;;;;;9.15;5.93;;;;;;;19.33;66.25;94830.25;5065587;28;20213;-76
2023/05/08 08:50:42;;;;;;;13.13;5.60;;;;;;;19.50;65.74;94828.94;5071065;28;20198;-77
2023/05/08 08:53:12;;;;;;;10.40;5.38;;;;;;;19.62;65.73;94826.00;5067759;28;20646;-77
2023/05/08 08:55:41;;;;;;;9.77;5.60;;;;;;;19.65;64.64;94818.31;5064978;28;20204;-76
2023/05/08 08:58:17;;;;;;;10.32;6.00;;;;;;;19.61;64.21;94816.50;5071928;28;20201;-76
2023/05/08 09:00:46;;;;;;;6.38;5.38;;;;;;;19.60;64.58;94812.25;5062994;28;20208;-77
2023/05/08 09:03:14;;;;;;;9.95;5.43;;;;;;;19.58;64.85;94809.91;5068583;28;20220;-76
2023/05/08 09:05:41;;;;;;;8.15;5.57;;;;;;;19.48;65.72;94809.16;5071629;28;20251;-77
2023/05/08 09:08:09;;;;;;;8.90;5.75;;;;;;;19.43;65.57;94809.16;5070099;28;20204;-79
2023/05/08 09:10:36;;;;;;;10.80;5.80;;;;;;;19.43;66.72;94798.63;5072828;28;20225;-80
2023/05/08 09:13:03;;;;;;;12.05;5.90;;;;;;;19.37;66.58;94789.13;5070352;28;20315;-76
2023/05/08 09:15:31;;;;;;;8.38;5.70;;;;;;;19.34;67.46;94782.53;5067664;28;20700;-83
2023/05/08 09:18:01;;;;;;;10.93;5.93;;;;;;;19.42;67.67;94782.03;5070039;28;20208;-80
2023/05/08 09:20:28;;;;;;;11.82;5.95;;;;;;;19.45;67.54;94762.25;5073467;28;20610;-79
2023/05/08 09:22:55;;;;;;;12.32;6.45;;;;;;;19.60;67.32;94762.94;5069914;28;20262;-80
2023/05/08 09:25:23;;;;;;;10.60;6.20;;;;;;;19.68;67.63;94767.66;5065520;28;20528;-81
2023/05/08 09:27:50;;;;;;;8.88;6.43;;;;;;;19.77;67.78;94770.50;5075100;28;20251;-82
2023/05/08 09:30:17;;;;;;;10.38;6.18;;;;;;;19.78;67.23;94775.53;5077146;28;20212;-83
2023/05/08 09:32:44;;;;;;;17.13;6.82;;;;;;;19.91;66.97;94787.34;5043005;28;20225;-82
2023/05/08 09:35:13;;;;;;;9.70;6.53;;;;;;;19.97;66.26;94788.88;5072943;28;20287;-81
2023/05/08 09:37:41;;;;;;;11.30;6.20;;;;;;;19.99;66.02;94792.03;5067606;28;20571;-81
2023/05/08 09:40:15;;;;;;;9.95;5.82;;;;;;;20.01;65.39;94797.81;5070585;28;20213;-82
2023/05/08 09:42:42;;;;;;;11.15;6.40;;;;;;;20.04;65.28;94802.56;5069031;28;20197;-80
2023/05/08 09:45:10;;;;;;;8.55;5.63;;;;;;;20.09;64.86;94804.38;5071198;28;20197;-80
2023/05/08 09:47:38;;;;;;;14.52;6.47;;;;;;;20.08;65.38;94800.97;5068792;28;20633;-78
2023/05/08 09:50:07;;;;;;;10.18;6.30;;;;;;;20.18;66.02;94798.25;5072065;28;20221;-82
2023/05/08 09:52:36;;;;;;;11.18;6.20;;;;;;;20.31;66.42;94794.25;5072563;28;20229;-80
2023/05/08 09:55:04;;;;;;;9.82;6.68;;;;;;;20.40;65.62;94800.53;5067733;28;20213;-78
2023/05/08 09:57:33;;;;;;;11.75;5.90;;;;;;;20.49;64.24;94792.81;5070524;28;20216;-78
2023/05/08 10:00:06;;;;;;;9.65;5.85;;;;;;;20.67;64.08;94792.91;5073910;28;20193;-78
2023/05/08 10:02:33;;;;;;;9.82;5.90;;;;;;;20.81;62.77;94795.69;5068571;28;20198;-78
2023/05/08 10:05:00;;;;;;;9.23;5.72;;;;;;;20.79;62.53;94795.19;5069122;28;20202;-78
2023/05/08 10:07:36;;;;;;;11.57;6.75;;;;;;;20.90;62.71;94792.16;5072051;28;20262;-78
2023/05/08 10:10:04;;;;;;;20.38;9.95;;;;;;;21.06;62.65;94795.47;5067015;28;20197;-78
2023/05/08 10:12:30;;;;;;;12.60;7.05;;;;;;;21.10;62.11;94771.91;5068023;28;20285;-80
2023/05/08 10:14:58;;;;;;;17.50;7.82;;;;;;;21.22;61.50;94786.34;5074887;28;20220;-77
2023/05/08 10:17:36;;;;;;;12.75;7.25;;;;;;;21.29;61.24;94789.44;5066319;28;20644;-78
2023/05/08 10:20:07;;;;;;;10.50;6.85;;;;;;;21.24;60.76;94789.47;5070855;28;20274;-79
2023/05/08 10:57:05;;;;;;;9.18;5.93;;;;;;;23.22;54.78;94755.66;4869438;29;20722;-79
2023/05/08 10:59:35;;;;;;;11.13;5.43;;;;;;;23.40;54.67;94755.59;4891667;28;20960;-81
2023/05/08 11:02:07;;;;;;;9.55;6.25;;;;;;;23.50;53.68;94749.28;4945825;28;20645;-81
2023/05/08 11:04:34;;;;;;;9.25;5.55;;;;;;;23.72;52.87;94749.38;5045839;28;20205;-83
2023/05/08 11:07:03;;;;;;;12.15;5.80;;;;;;;23.86;53.07;94738.72;5077456;28;20189;-81
2023/05/08 11:09:45;;;;;;;8.35;5.57;;;;;;;24.31;52.29;94736.94;5075518;28;20216;-79
2023/05/08 11:12:20;;;;;;;8.48;5.72;;;;;;;24.59;50.34;94733.09;5069777;28;20719;-79
2023/05/08 11:14:58;;;;;;;8.35;5.38;;;;;;;24.95;47.25;94743.63;5068644;28;20235;-79
2023/05/08 11:17:25;;;;;;;6.97;4.88;;;;;;;25.17;45.39;94731.06;5073186;28;20254;-79
2023/05/08 11:19:56;;;;;;;7.40;4.53;;;;;;;25.42;44.54;94735.69;5067075;28;20214;-79
2023/05/08 11:22:27;;;;;;;5.97;4.55;;;;;;;25.33;44.34;94720.78;5062478;28;20939;-80
2023/05/08 11:24:59;;;;;;;5.60;5.00;;;;;;;25.54;43.33;94737.78;5072057;28;20835;-78
2023/05/08 11:28:03;;;;;;;6.30;4.55;;;;;;;25.58;44.36;94722.75;5068257;28;20188;-78
2023/05/08 11:30:40;;;;;;;7.10;4.80;;;;;;;25.75;44.68;94720.13;5068562;28;20193;-80
2023/05/08 11:33:30;;;;;;;9.90;4.80;;;;;;;25.85;43.40;94717.19;5065295;28;20209;-77
2023/05/08 11:35:58;;;;;;;6.68;4.88;;;;;;;25.97;42.75;94718.44;5075001;28;20289;-77
2023/05/08 11:38:30;;;;;;;9.40;4.80;;;;;;;26.01;42.76;94706.84;5072286;28;20741;-78
2023/05/08 11:40:59;;;;;;;10.07;4.60;;;;;;;26.12;43.49;94713.41;5065778;28;20228;-79
2023/05/08 11:43:35;;;;;;;7.90;4.28;;;;;;;26.24;42.63;94699.50;5075968;28;20196;-78
2023/05/08 11:46:07;;;;;;;8.40;4.10;;;;;;;26.21;42.48;94698.25;5072372;28;20913;-78
2023/05/08 11:48:35;;;;;;;6.03;4.53;;;;;;;26.30;42.72;94695.56;5067118;28;20216;-78
2023/05/08 11:51:03;;;;;;;6.57;4.35;;;;;;;26.18;42.05;94688.22;5076501;28;20221;-78
2023/05/08 11:53:30;;;;;;;6.70;4.75;;;;;;;26.35;42.90;94682.06;5054791;28;20224;-77
2023/05/08 11:55:57;;;;;;;10.25;4.60;;;;;;;26.17;42.43;94689.31;5065035;28;20686;-79
2023/05/08 11:58:24;;;;;;;4.80;4.30;;;;;;;25.75;42.93;94669.53;5065682;28;20279;-78
2023/05/08 12:00:51;;;;;;;6.18;4.45;;;;;;;25.36;44.10;94688.22;5060228;28;20201;-79
2023/05/08 12:03:20;;;;;;;5.45;4.30;;;;;;;25.11;44.65;94672.97;5055254;28;21031;-79
2023/05/08 12:05:48;;;;;;;4.80;4.25;;;;;;;25.22;44.25;94676.94;5062538;28;20193;-78
2023/05/08 12:08:16;;;;;;;8.93;4.35;;;;;;;25.48;44.37;94672.50;5065138;28;20312;-78
2023/05/08 12:10:50;;;;;;;7.88;4.30;;;;;;;25.73;43.06;94671.72;5059102;28;20190;-78